sensor_id;sensor_type;location;lat;lon;timestamp;P1;durP1;ratioP1;P2;durP2;ratioP2
10461;SDS011;5278;42.656;23.374;2023-07-13T00:01:53;6.27;;;3.90;;
10461;SDS011;5278;42.656;23.374;2023-07-13T00:04:23;4.30;;;3.90;;
10461;SDS011;5278;42.656;23.374;2023-07-13T00:06:51;8.90;;;7.63;;
10461;SDS011;5278;42.656;23.374;2023-07-13T00:09:20;7.73;;;5.50;;
10461;SDS011;5278;42.656;23.374;2023-07-13T00:11:51;7.27;;;5.07;;
10461;SDS011;5278;42.656;23.374;2023-07-13T00:14:21;6.87;;;4.73;;
10461;SDS011;5278;42.656;23.374;2023-07-13T00:16:48;4.77;;;4.37;;
10461;SDS011;5278;42.656;23.374;2023-07-13T00:19:15;6.93;;;4.63;;
10461;SDS011;5278;42.656;23.374;2023-07-13T00:21:42;5.63;;;4.77;;
10461;SDS011;5278;42.656;23.374;2023-07-13T00:24:11;5.47;;;4.57;;
10461;SDS011;5278;42.656;23.374;2023-07-13T00:26:40;4.50;;;4.10;;
10461;SDS011;5278;42.656;23.374;2023-07-13T00:29:11;5.10;;;4.00;;
10461;SDS011;5278;42.656;23.374;2023-07-13T00:31:39;7.60;;;4.30;;
10461;SDS011;5278;42.656;23.374;2023-07-13T00:34:05;5.77;;;4.30;;
10461;SDS011;5278;42.656;23.374;2023-07-13T00:36:32;4.70;;;3.90;;
10461;SDS011;5278;42.656;23.374;2023-07-13T00:39:00;4.73;;;4.10;;
10461;SDS011;5278;42.656;23.374;2023-07-13T00:41:29;4.90;;;4.40;;
10461;SDS011;5278;42.656;23.374;2023-07-13T00:43:56;6.00;;;4.57;;
10461;SDS011;5278;42.656;23.374;2023-07-13T00:46:27;6.90;;;4.70;;
10461;SDS011;5278;42.656;23.374;2023-07-13T00:48:56;5.80;;;4.50;;
10461;SDS011;5278;42.656;23.374;2023-07-13T00:51:27;5.17;;;4.67;;
10461;SDS011;5278;42.656;23.374;2023-07-13T00:53:58;4.43;;;3.97;;
10461;SDS011;5278;42.656;23.374;2023-07-13T00:56:31;6.13;;;4.43;;
10461;SDS011;5278;42.656;23.374;2023-07-13T00:59:00;6.27;;;4.37;;
10461;SDS011;5278;42.656;23.374;2023-07-13T01:01:30;4.93;;;4.43;;
10461;SDS011;5278;42.656;23.374;2023-07-13T01:03:57;4.57;;;4.10;;
10461;SDS011;5278;42.656;23.374;2023-07-13T01:06:25;6.03;;;4.87;;
10461;SDS011;5278;42.656;23.374;2023-07-13T01:08:52;5.67;;;4.80;;
10461;SDS011;5278;42.656;23.374;2023-07-13T01:11:19;5.03;;;4.53;;
10461;SDS011;5278;42.656;23.374;2023-07-13T01:13:47;7.87;;;4.67;;
10461;SDS011;5278;42.656;23.374;2023-07-13T01:16:18;5.50;;;4.90;;
10461;SDS011;5278;42.656;23.374;2023-07-13T01:18:52;8.93;;;4.70;;
10461;SDS011;5278;42.656;23.374;2023-07-13T01:21:20;8.27;;;5.30;;
10461;SDS011;5278;42.656;23.374;2023-07-13T01:23:47;7.00;;;4.73;;
10461;SDS011;5278;42.656;23.374;2023-07-13T01:26:14;4.90;;;4.40;;
10461;SDS011;5278;42.656;23.374;2023-07-13T01:28:42;4.87;;;4.37;;
10461;SDS011;5278;42.656;23.374;2023-07-13T01:31:09;5.70;;;4.37;;
10461;SDS011;5278;42.656;23.374;2023-07-13T01:33:38;5.00;;;4.40;;
10461;SDS011;5278;42.656;23.374;2023-07-13T01:36:06;5.60;;;4.57;;
10461;SDS011;5278;42.656;23.374;2023-07-13T01:38:37;5.13;;;4.53;;
10461;SDS011;5278;42.656;23.374;2023-07-13T01:41:04;7.27;;;5.07;;
10461;SDS011;5278;42.656;23.374;2023-07-13T01:43:32;5.50;;;4.47;;
10461;SDS011;5278;42.656;23.374;2023-07-13T01:45:58;7.20;;;5.27;;
10461;SDS011;5278;42.656;23.374;2023-07-13T01:48:26;5.40;;;4.63;;
10461;SDS011;5278;42.656;23.374;2023-07-13T01:50:53;6.03;;;5.27;;
10461;SDS011;5278;42.656;23.374;2023-07-13T01:53:19;4.77;;;4.37;;
10461;SDS011;5278;42.656;23.374;2023-07-13T01:55:50;4.60;;;4.20;;
10461;SDS011;5278;42.656;23.374;2023-07-13T01:58:17;6.10;;;4.40;;
10461;SDS011;5278;42.656;23.374;2023-07-13T02:00:47;5.87;;;4.60;;
10461;SDS011;5278;42.656;23.374;2023-07-13T02:03:15;7.10;;;5.30;;
10461;SDS011;5278;42.656;23.374;2023-07-13T02:05:43;5.90;;;4.97;;
10461;SDS011;5278;42.656;23.374;2023-07-13T02:08:10;8.23;;;5.10;;
10461;SDS011;5278;42.656;23.374;2023-07-13T02:10:37;5.70;;;5.10;;
10461;SDS011;5278;42.656;23.374;2023-07-13T02:13:06;6.40;;;5.03;;
10461;SDS011;5278;42.656;23.374;2023-07-13T02:15:33;6.13;;;4.60;;
10461;SDS011;5278;42.656;23.374;2023-07-13T02:18:00;8.30;;;4.63;;
10461;SDS011;5278;42.656;23.374;2023-07-13T02:20:28;6.87;;;4.73;;
10461;SDS011;5278;42.656;23.374;2023-07-13T02:22:56;7.67;;;5.20;;
10461;SDS011;5278;42.656;23.374;2023-07-13T02:25:23;5.57;;;5.03;;
10461;SDS011;5278;42.656;23.374;2023-07-13T02:27:51;9.50;;;5.17;;
10461;SDS011;5278;42.656;23.374;2023-07-13T02:30:20;7.27;;;5.07;;
10461;SDS011;5278;42.656;23.374;2023-07-13T02:32:50;7.20;;;5.33;;
10461;SDS011;5278;42.656;23.374;2023-07-13T02:35:17;6.63;;;4.83;;
10461;SDS011;5278;42.656;23.374;2023-07-13T02:37:43;9.17;;;5.20;;
10461;SDS011;5278;42.656;23.374;2023-07-13T02:40:12;5.40;;;4.90;;
10461;SDS011;5278;42.656;23.374;2023-07-13T02:42:39;5.63;;;5.13;;
10461;SDS011;5278;42.656;23.374;2023-07-13T02:45:07;6.30;;;5.37;;
10461;SDS011;5278;42.656;23.374;2023-07-13T02:47:36;5.60;;;5.00;;
10461;SDS011;5278;42.656;23.374;2023-07-13T02:50:03;5.53;;;4.87;;
10461;SDS011;5278;42.656;23.374;2023-07-13T02:52:31;6.40;;;4.87;;
10461;SDS011;5278;42.656;23.374;2023-07-13T02:54:58;6.57;;;4.63;;
10461;SDS011;5278;42.656;23.374;2023-07-13T02:57:25;6.47;;;5.37;;
10461;SDS011;5278;42.656;23.374;2023-07-13T02:59:53;7.13;;;5.17;;
10461;SDS011;5278;42.656;23.374;2023-07-13T03:02:20;6.67;;;5.33;;
10461;SDS011;5278;42.656;23.374;2023-07-13T03:04:48;7.13;;;5.33;;
10461;SDS011;5278;42.656;23.374;2023-07-13T03:07:15;5.93;;;4.87;;
10461;SDS011;5278;42.656;23.374;2023-07-13T03:09:42;5.13;;;4.63;;
10461;SDS011;5278;42.656;23.374;2023-07-13T03:12:09;8.07;;;5.60;;
10461;SDS011;5278;42.656;23.374;2023-07-13T03:14:36;5.87;;;5.03;;
10461;SDS011;5278;42.656;23.374;2023-07-13T03:17:04;5.67;;;5.17;;
10461;SDS011;5278;42.656;23.374;2023-07-13T03:19:31;5.93;;;5.20;;
10461;SDS011;5278;42.656;23.374;2023-07-13T03:21:59;5.73;;;5.13;;
10461;SDS011;5278;42.656;23.374;2023-07-13T03:24:26;6.17;;;4.63;;
10461;SDS011;5278;42.656;23.374;2023-07-13T03:26:53;6.23;;;5.17;;
10461;SDS011;5278;42.656;23.374;2023-07-13T03:29:20;5.87;;;4.73;;
10461;SDS011;5278;42.656;23.374;2023-07-13T03:31:47;5.90;;;4.70;;
10461;SDS011;5278;42.656;23.374;2023-07-13T03:34:14;6.40;;;5.30;;
10461;SDS011;5278;42.656;23.374;2023-07-13T03:36:41;6.27;;;5.50;;
10461;SDS011;5278;42.656;23.374;2023-07-13T03:39:10;6.50;;;5.33;;
10461;SDS011;5278;42.656;23.374;2023-07-13T03:41:36;5.83;;;5.23;;
10461;SDS011;5278;42.656;23.374;2023-07-13T03:44:04;8.80;;;6.10;;
10461;SDS011;5278;42.656;23.374;2023-07-13T03:46:31;6.77;;;5.37;;
10461;SDS011;5278;42.656;23.374;2023-07-13T03:48:58;5.97;;;5.10;;
10461;SDS011;5278;42.656;23.374;2023-07-13T03:51:26;8.03;;;5.07;;
10461;SDS011;5278;42.656;23.374;2023-07-13T03:53:54;9.13;;;5.40;;
10461;SDS011;5278;42.656;23.374;2023-07-13T03:56:22;7.20;;;5.47;;
10461;SDS011;5278;42.656;23.374;2023-07-13T03:58:50;6.20;;;5.60;;
10461;SDS011;5278;42.656;23.374;2023-07-13T04:01:18;8.27;;;5.77;;
10461;SDS011;5278;42.656;23.374;2023-07-13T04:03:46;8.47;;;5.97;;
10461;SDS011;5278;42.656;23.374;2023-07-13T04:06:15;6.67;;;5.27;;
10461;SDS011;5278;42.656;23.374;2023-07-13T04:08:46;8.20;;;5.20;;
10461;SDS011;5278;42.656;23.374;2023-07-13T04:11:15;7.37;;;5.43;;
10461;SDS011;5278;42.656;23.374;2023-07-13T04:13:44;10.87;;;6.17;;
10461;SDS011;5278;42.656;23.374;2023-07-13T04:16:11;8.20;;;5.93;;
10461;SDS011;5278;42.656;23.374;2023-07-13T04:18:39;10.00;;;5.77;;
10461;SDS011;5278;42.656;23.374;2023-07-13T04:21:06;7.37;;;5.80;;
10461;SDS011;5278;42.656;23.374;2023-07-13T04:23:35;11.13;;;7.03;;
10461;SDS011;5278;42.656;23.374;2023-07-13T04:26:02;9.63;;;8.60;;
10461;SDS011;5278;42.656;23.374;2023-07-13T04:28:29;7.30;;;6.07;;
10461;SDS011;5278;42.656;23.374;2023-07-13T04:30:58;9.43;;;6.17;;
10461;SDS011;5278;42.656;23.374;2023-07-13T04:33:25;8.70;;;6.17;;
10461;SDS011;5278;42.656;23.374;2023-07-13T04:35:53;7.20;;;5.70;;
10461;SDS011;5278;42.656;23.374;2023-07-13T04:38:21;8.23;;;6.40;;
10461;SDS011;5278;42.656;23.374;2023-07-13T04:40:49;6.57;;;5.90;;
10461;SDS011;5278;42.656;23.374;2023-07-13T04:43:17;7.20;;;5.70;;
10461;SDS011;5278;42.656;23.374;2023-07-13T04:45:44;6.57;;;5.90;;
10461;SDS011;5278;42.656;23.374;2023-07-13T04:48:13;10.93;;;6.63;;
10461;SDS011;5278;42.656;23.374;2023-07-13T04:50:40;8.60;;;6.70;;
10461;SDS011;5278;42.656;23.374;2023-07-13T04:53:08;11.57;;;6.03;;
10461;SDS011;5278;42.656;23.374;2023-07-13T04:55:35;8.27;;;6.63;;
10461;SDS011;5278;42.656;23.374;2023-07-13T04:58:02;7.03;;;6.30;;
10461;SDS011;5278;42.656;23.374;2023-07-13T05:00:30;9.93;;;7.10;;
10461;SDS011;5278;42.656;23.374;2023-07-13T05:02:57;8.97;;;6.40;;
10461;SDS011;5278;42.656;23.374;2023-07-13T05:05:26;9.47;;;6.13;;
10461;SDS011;5278;42.656;23.374;2023-07-13T05:07:53;7.80;;;5.87;;
10461;SDS011;5278;42.656;23.374;2023-07-13T05:10:20;9.50;;;6.23;;
10461;SDS011;5278;42.656;23.374;2023-07-13T05:12:48;7.20;;;5.90;;
10461;SDS011;5278;42.656;23.374;2023-07-13T05:15:15;10.07;;;7.10;;
10461;SDS011;5278;42.656;23.374;2023-07-13T05:17:46;7.53;;;6.57;;
10461;SDS011;5278;42.656;23.374;2023-07-13T05:20:13;10.10;;;6.10;;
10461;SDS011;5278;42.656;23.374;2023-07-13T05:22:44;7.90;;;5.93;;
10461;SDS011;5278;42.656;23.374;2023-07-13T05:25:12;8.10;;;6.57;;
10461;SDS011;5278;42.656;23.374;2023-07-13T05:27:38;7.27;;;6.40;;
10461;SDS011;5278;42.656;23.374;2023-07-13T05:30:06;7.20;;;6.50;;
10461;SDS011;5278;42.656;23.374;2023-07-13T05:32:36;7.10;;;6.43;;
10461;SDS011;5278;42.656;23.374;2023-07-13T05:35:03;8.20;;;6.30;;
10461;SDS011;5278;42.656;23.374;2023-07-13T05:37:30;7.37;;;6.70;;
10461;SDS011;5278;42.656;23.374;2023-07-13T05:39:59;8.93;;;6.20;;
10461;SDS011;5278;42.656;23.374;2023-07-13T05:42:26;6.28;;;5.68;;
10461;SDS011;5278;42.656;23.374;2023-07-13T05:44:53;8.77;;;6.53;;
10461;SDS011;5278;42.656;23.374;2023-07-13T05:47:20;7.53;;;6.50;;
10461;SDS011;5278;42.656;23.374;2023-07-13T05:49:47;9.37;;;7.00;;
10461;SDS011;5278;42.656;23.374;2023-07-13T05:52:14;7.50;;;6.80;;
10461;SDS011;5278;42.656;23.374;2023-07-13T05:54:41;11.65;;;8.38;;
10461;SDS011;5278;42.656;23.374;2023-07-13T05:57:09;8.75;;;7.47;;
10461;SDS011;5278;42.656;23.374;2023-07-13T05:59:36;7.88;;;6.35;;
10461;SDS011;5278;42.656;23.374;2023-07-13T06:02:03;7.32;;;6.15;;
10461;SDS011;5278;42.656;23.374;2023-07-13T06:04:30;7.82;;;7.03;;
10461;SDS011;5278;42.656;23.374;2023-07-13T06:06:57;10.85;;;9.70;;
10461;SDS011;5278;42.656;23.374;2023-07-13T06:09:25;10.23;;;9.00;;
10461;SDS011;5278;42.656;23.374;2023-07-13T06:11:52;8.50;;;7.57;;
10461;SDS011;5278;42.656;23.374;2023-07-13T06:14:20;10.30;;;7.60;;
10461;SDS011;5278;42.656;23.374;2023-07-13T06:16:47;13.93;;;9.15;;
10461;SDS011;5278;42.656;23.374;2023-07-13T06:19:14;11.77;;;8.40;;
10461;SDS011;5278;42.656;23.374;2023-07-13T06:21:41;12.32;;;7.38;;
10461;SDS011;5278;42.656;23.374;2023-07-13T06:24:08;9.00;;;6.20;;
10461;SDS011;5278;42.656;23.374;2023-07-13T06:26:35;8.07;;;5.88;;
10461;SDS011;5278;42.656;23.374;2023-07-13T06:29:02;7.28;;;6.68;;
10461;SDS011;5278;42.656;23.374;2023-07-13T06:31:30;7.88;;;7.00;;
10461;SDS011;5278;42.656;23.374;2023-07-13T06:33:57;7.18;;;6.47;;
10461;SDS011;5278;42.656;23.374;2023-07-13T06:36:24;8.25;;;6.53;;
10461;SDS011;5278;42.656;23.374;2023-07-13T06:38:51;9.60;;;6.47;;
10461;SDS011;5278;42.656;23.374;2023-07-13T06:41:18;7.40;;;5.97;;
10461;SDS011;5278;42.656;23.374;2023-07-13T06:43:47;8.82;;;7.93;;
10461;SDS011;5278;42.656;23.374;2023-07-13T06:46:14;11.85;;;8.43;;
10461;SDS011;5278;42.656;23.374;2023-07-13T06:48:42;8.38;;;7.35;;
10461;SDS011;5278;42.656;23.374;2023-07-13T06:51:09;9.35;;;7.65;;
10461;SDS011;5278;42.656;23.374;2023-07-13T06:53:36;13.80;;;8.38;;
10461;SDS011;5278;42.656;23.374;2023-07-13T06:56:03;7.80;;;7.03;;
10461;SDS011;5278;42.656;23.374;2023-07-13T06:58:30;7.60;;;6.75;;
10461;SDS011;5278;42.656;23.374;2023-07-13T07:00:58;10.98;;;8.13;;
10461;SDS011;5278;42.656;23.374;2023-07-13T07:03:25;8.48;;;6.88;;
10461;SDS011;5278;42.656;23.374;2023-07-13T07:05:53;11.43;;;8.52;;
10461;SDS011;5278;42.656;23.374;2023-07-13T07:08:20;14.60;;;10.15;;
10461;SDS011;5278;42.656;23.374;2023-07-13T07:10:47;11.60;;;7.57;;
10461;SDS011;5278;42.656;23.374;2023-07-13T07:13:19;7.93;;;6.82;;
10461;SDS011;5278;42.656;23.374;2023-07-13T07:15:47;8.50;;;7.43;;
10461;SDS011;5278;42.656;23.374;2023-07-13T07:18:16;12.88;;;7.82;;
10461;SDS011;5278;42.656;23.374;2023-07-13T07:20:42;11.30;;;7.25;;
10461;SDS011;5278;42.656;23.374;2023-07-13T07:23:11;12.77;;;8.15;;
10461;SDS011;5278;42.656;23.374;2023-07-13T07:25:39;8.25;;;7.45;;
10461;SDS011;5278;42.656;23.374;2023-07-13T07:28:07;14.90;;;7.22;;
10461;SDS011;5278;42.656;23.374;2023-07-13T07:30:34;12.27;;;8.32;;
10461;SDS011;5278;42.656;23.374;2023-07-13T07:33:03;8.57;;;7.30;;
10461;SDS011;5278;42.656;23.374;2023-07-13T07:35:30;19.08;;;12.38;;
10461;SDS011;5278;42.656;23.374;2023-07-13T07:37:58;9.70;;;6.85;;
10461;SDS011;5278;42.656;23.374;2023-07-13T07:40:27;12.55;;;8.23;;
10461;SDS011;5278;42.656;23.374;2023-07-13T07:42:54;14.23;;;7.72;;
10461;SDS011;5278;42.656;23.374;2023-07-13T07:45:21;9.85;;;8.95;;
10461;SDS011;5278;42.656;23.374;2023-07-13T07:47:48;10.77;;;7.68;;
10461;SDS011;5278;42.656;23.374;2023-07-13T07:50:15;8.77;;;6.88;;
10461;SDS011;5278;42.656;23.374;2023-07-13T07:52:42;15.20;;;11.77;;
10461;SDS011;5278;42.656;23.374;2023-07-13T07:55:09;13.48;;;8.77;;
10461;SDS011;5278;42.656;23.374;2023-07-13T07:57:39;11.07;;;9.48;;
10461;SDS011;5278;42.656;23.374;2023-07-13T08:00:06;9.18;;;8.27;;
10461;SDS011;5278;42.656;23.374;2023-07-13T08:02:34;10.18;;;8.35;;
10461;SDS011;5278;42.656;23.374;2023-07-13T08:05:01;14.63;;;7.80;;
10461;SDS011;5278;42.656;23.374;2023-07-13T08:07:29;10.15;;;7.20;;
10461;SDS011;5278;42.656;23.374;2023-07-13T08:09:57;7.55;;;6.55;;
10461;SDS011;5278;42.656;23.374;2023-07-13T08:12:24;9.52;;;6.93;;
10461;SDS011;5278;42.656;23.374;2023-07-13T08:14:52;8.27;;;7.38;;
10461;SDS011;5278;42.656;23.374;2023-07-13T08:17:22;8.00;;;6.75;;
10461;SDS011;5278;42.656;23.374;2023-07-13T08:19:52;8.88;;;7.45;;
10461;SDS011;5278;42.656;23.374;2023-07-13T08:22:19;8.80;;;7.07;;
10461;SDS011;5278;42.656;23.374;2023-07-13T08:24:46;10.88;;;7.88;;
10461;SDS011;5278;42.656;23.374;2023-07-13T08:27:20;9.18;;;8.25;;
10461;SDS011;5278;42.656;23.374;2023-07-13T08:29:47;9.57;;;7.93;;
10461;SDS011;5278;42.656;23.374;2023-07-13T08:32:16;9.18;;;8.05;;
10461;SDS011;5278;42.656;23.374;2023-07-13T08:34:44;10.38;;;7.60;;
10461;SDS011;5278;42.656;23.374;2023-07-13T08:37:11;9.35;;;7.78;;
10461;SDS011;5278;42.656;23.374;2023-07-13T08:39:38;11.48;;;9.63;;
10461;SDS011;5278;42.656;23.374;2023-07-13T08:42:06;11.90;;;9.20;;
10461;SDS011;5278;42.656;23.374;2023-07-13T08:44:40;8.00;;;7.22;;
10461;SDS011;5278;42.656;23.374;2023-07-13T08:47:20;12.05;;;9.07;;
10461;SDS011;5278;42.656;23.374;2023-07-13T08:49:50;11.85;;;8.40;;
10461;SDS011;5278;42.656;23.374;2023-07-13T08:52:22;12.80;;;7.65;;
10461;SDS011;5278;42.656;23.374;2023-07-13T08:54:55;8.63;;;7.78;;
10461;SDS011;5278;42.656;23.374;2023-07-13T08:57:27;9.60;;;7.45;;
10461;SDS011;5278;42.656;23.374;2023-07-13T08:59:59;10.82;;;7.95;;
10461;SDS011;5278;42.656;23.374;2023-07-13T09:02:28;9.48;;;7.57;;
10461;SDS011;5278;42.656;23.374;2023-07-13T09:05:08;12.60;;;7.97;;
10461;SDS011;5278;42.656;23.374;2023-07-13T09:07:41;7.57;;;6.95;;
10461;SDS011;5278;42.656;23.374;2023-07-13T09:10:27;11.85;;;7.30;;
10461;SDS011;5278;42.656;23.374;2023-07-13T09:13:00;9.00;;;7.82;;
10461;SDS011;5278;42.656;23.374;2023-07-13T09:15:38;8.40;;;6.90;;
10461;SDS011;5278;42.656;23.374;2023-07-13T09:18:10;8.23;;;7.47;;
10461;SDS011;5278;42.656;23.374;2023-07-13T09:20:42;8.07;;;7.30;;
10461;SDS011;5278;42.656;23.374;2023-07-13T09:23:14;15.82;;;14.05;;
10461;SDS011;5278;42.656;23.374;2023-07-13T09:25:45;16.10;;;10.48;;
10461;SDS011;5278;42.656;23.374;2023-07-13T09:28:20;8.43;;;7.53;;
10461;SDS011;5278;42.656;23.374;2023-07-13T09:30:51;13.82;;;9.68;;
10461;SDS011;5278;42.656;23.374;2023-07-13T09:33:23;10.90;;;8.32;;
10461;SDS011;5278;42.656;23.374;2023-07-13T09:35:50;12.27;;;11.02;;
10461;SDS011;5278;42.656;23.374;2023-07-13T09:38:18;11.23;;;8.73;;
10461;SDS011;5278;42.656;23.374;2023-07-13T09:40:49;11.88;;;8.52;;
10461;SDS011;5278;42.656;23.374;2023-07-13T09:43:25;11.00;;;7.82;;
10461;SDS011;5278;42.656;23.374;2023-07-13T09:45:54;8.57;;;7.40;;
10461;SDS011;5278;42.656;23.374;2023-07-13T09:48:23;10.77;;;8.13;;
10461;SDS011;5278;42.656;23.374;2023-07-13T09:50:54;8.80;;;7.90;;
10461;SDS011;5278;42.656;23.374;2023-07-13T09:53:22;9.40;;;7.72;;
10461;SDS011;5278;42.656;23.374;2023-07-13T09:55:49;14.73;;;8.50;;
10461;SDS011;5278;42.656;23.374;2023-07-13T09:58:18;10.02;;;8.82;;
10461;SDS011;5278;42.656;23.374;2023-07-13T10:00:53;9.82;;;8.82;;
10461;SDS011;5278;42.656;23.374;2023-07-13T10:03:25;9.40;;;8.38;;
10461;SDS011;5278;42.656;23.374;2023-07-13T10:05:54;14.07;;;9.18;;
10461;SDS011;5278;42.656;23.374;2023-07-13T10:08:31;10.75;;;8.15;;
10461;SDS011;5278;42.656;23.374;2023-07-13T10:11:08;11.77;;;8.15;;
10461;SDS011;5278;42.656;23.374;2023-07-13T10:13:37;9.93;;;8.82;;
10461;SDS011;5278;42.656;23.374;2023-07-13T10:16:08;8.55;;;7.38;;
10461;SDS011;5278;42.656;23.374;2023-07-13T10:18:42;10.10;;;7.38;;
10461;SDS011;5278;42.656;23.374;2023-07-13T10:21:13;10.90;;;8.73;;
10461;SDS011;5278;42.656;23.374;2023-07-13T10:23:42;8.75;;;7.82;;
10461;SDS011;5278;42.656;23.374;2023-07-13T10:26:12;10.32;;;8.30;;
10461;SDS011;5278;42.656;23.374;2023-07-13T10:28:43;9.73;;;7.57;;
10461;SDS011;5278;42.656;23.374;2023-07-13T10:31:14;9.25;;;7.60;;
10461;SDS011;5278;42.656;23.374;2023-07-13T10:33:44;8.88;;;7.60;;
10461;SDS011;5278;42.656;23.374;2023-07-13T10:36:13;11.90;;;8.48;;
10461;SDS011;5278;42.656;23.374;2023-07-13T10:38:44;11.73;;;8.82;;
10461;SDS011;5278;42.656;23.374;2023-07-13T10:41:15;8.98;;;8.18;;
10461;SDS011;5278;42.656;23.374;2023-07-13T10:43:46;12.25;;;7.85;;
10461;SDS011;5278;42.656;23.374;2023-07-13T10:46:18;9.13;;;7.22;;
10461;SDS011;5278;42.656;23.374;2023-07-13T10:48:49;9.65;;;8.60;;
10461;SDS011;5278;42.656;23.374;2023-07-13T10:51:20;7.88;;;7.18;;
10461;SDS011;5278;42.656;23.374;2023-07-13T10:56:38;11.63;;;7.47;;
10461;SDS011;5278;42.656;23.374;2023-07-13T10:59:10;7.57;;;5.40;;
10461;SDS011;5278;42.656;23.374;2023-07-13T11:01:40;12.60;;;5.82;;
10461;SDS011;5278;42.656;23.374;2023-07-13T11:04:16;6.15;;;5.55;;
10461;SDS011;5278;42.656;23.374;2023-07-13T11:06:48;6.07;;;5.45;;
10461;SDS011;5278;42.656;23.374;2023-07-13T11:09:18;9.85;;;5.93;;
10461;SDS011;5278;42.656;23.374;2023-07-13T11:12:02;8.13;;;5.22;;
10461;SDS011;5278;42.656;23.374;2023-07-13T11:14:34;7.90;;;6.05;;
10461;SDS011;5278;42.656;23.374;2023-07-13T11:20:22;7.70;;;5.03;;
10461;SDS011;5278;42.656;23.374;2023-07-13T11:23:07;8.55;;;5.53;;
10461;SDS011;5278;42.656;23.374;2023-07-13T11:25:49;7.90;;;5.85;;
10461;SDS011;5278;42.656;23.374;2023-07-13T11:28:17;7.28;;;5.35;;
10461;SDS011;5278;42.656;23.374;2023-07-13T11:30:49;11.95;;;5.60;;
10461;SDS011;5278;42.656;23.374;2023-07-13T11:33:28;8.10;;;4.78;;
10461;SDS011;5278;42.656;23.374;2023-07-13T11:36:13;8.23;;;5.50;;
10461;SDS011;5278;42.656;23.374;2023-07-13T11:38:45;8.27;;;5.32;;
10461;SDS011;5278;42.656;23.374;2023-07-13T11:41:16;11.52;;;6.70;;
10461;SDS011;5278;42.656;23.374;2023-07-13T11:43:47;11.95;;;6.60;;
10461;SDS011;5278;42.656;23.374;2023-07-13T11:46:18;8.70;;;6.43;;
10461;SDS011;5278;42.656;23.374;2023-07-13T11:48:48;8.15;;;7.05;;
10461;SDS011;5278;42.656;23.374;2023-07-13T11:51:20;15.70;;;7.85;;
10461;SDS011;5278;42.656;23.374;2023-07-13T11:53:50;7.03;;;5.95;;
10461;SDS011;5278;42.656;23.374;2023-07-13T11:56:18;11.10;;;5.10;;
10461;SDS011;5278;42.656;23.374;2023-07-13T11:58:48;10.48;;;5.72;;
10461;SDS011;5278;42.656;23.374;2023-07-13T12:01:20;9.43;;;5.72;;
10461;SDS011;5278;42.656;23.374;2023-07-13T12:03:48;11.18;;;6.28;;
10461;SDS011;5278;42.656;23.374;2023-07-13T12:06:24;9.48;;;5.32;;
10461;SDS011;5278;42.656;23.374;2023-07-13T12:08:57;8.52;;;5.00;;
10461;SDS011;5278;42.656;23.374;2023-07-13T12:11:26;7.43;;;5.40;;
10461;SDS011;5278;42.656;23.374;2023-07-13T12:13:53;9.65;;;5.65;;
10461;SDS011;5278;42.656;23.374;2023-07-13T12:16:23;8.57;;;5.88;;
10461;SDS011;5278;42.656;23.374;2023-07-13T12:18:54;9.63;;;6.32;;
10461;SDS011;5278;42.656;23.374;2023-07-13T12:21:26;6.85;;;5.60;;
10461;SDS011;5278;42.656;23.374;2023-07-13T12:23:57;7.35;;;5.22;;
10461;SDS011;5278;42.656;23.374;2023-07-13T12:26:27;8.13;;;5.50;;
10461;SDS011;5278;42.656;23.374;2023-07-13T12:28:58;7.57;;;4.75;;
10461;SDS011;5278;42.656;23.374;2023-07-13T12:31:30;7.35;;;5.60;;
10461;SDS011;5278;42.656;23.374;2023-07-13T12:34:02;8.68;;;5.80;;
10461;SDS011;5278;42.656;23.374;2023-07-13T12:36:36;8.75;;;6.07;;
10461;SDS011;5278;42.656;23.374;2023-07-13T12:39:11;8.38;;;5.38;;
10461;SDS011;5278;42.656;23.374;2023-07-13T12:41:41;8.15;;;5.20;;
10461;SDS011;5278;42.656;23.374;2023-07-13T12:44:14;9.20;;;5.53;;
10461;SDS011;5278;42.656;23.374;2023-07-13T12:46:56;23.13;;;5.90;;
10461;SDS011;5278;42.656;23.374;2023-07-13T12:49:28;6.88;;;4.80;;
10461;SDS011;5278;42.656;23.374;2023-07-13T12:52:02;7.60;;;4.40;;
10461;SDS011;5278;42.656;23.374;2023-07-13T12:54:30;9.07;;;6.03;;
10461;SDS011;5278;42.656;23.374;2023-07-13T12:56:58;11.40;;;5.72;;
10461;SDS011;5278;42.656;23.374;2023-07-13T12:59:29;8.30;;;5.70;;
10461;SDS011;5278;42.656;23.374;2023-07-13T13:02:08;7.63;;;6.07;;
10461;SDS011;5278;42.656;23.374;2023-07-13T13:04:48;10.85;;;6.93;;
10461;SDS011;5278;42.656;23.374;2023-07-13T13:07:16;9.32;;;6.68;;
10461;SDS011;5278;42.656;23.374;2023-07-13T13:09:45;8.40;;;6.93;;
10461;SDS011;5278;42.656;23.374;2023-07-13T13:12:14;9.40;;;6.60;;
10461;SDS011;5278;42.656;23.374;2023-07-13T13:14:42;8.70;;;6.90;;
10461;SDS011;5278;42.656;23.374;2023-07-13T13:17:14;11.00;;;6.10;;
10461;SDS011;5278;42.656;23.374;2023-07-13T13:19:46;8.75;;;5.95;;
10461;SDS011;5278;42.656;23.374;2023-07-13T13:22:14;14.55;;;6.72;;
10461;SDS011;5278;42.656;23.374;2023-07-13T13:24:43;10.25;;;6.55;;
10461;SDS011;5278;42.656;23.374;2023-07-13T13:27:13;13.30;;;7.90;;
10461;SDS011;5278;42.656;23.374;2023-07-13T13:29:42;8.98;;;6.63;;
10461;SDS011;5278;42.656;23.374;2023-07-13T13:32:11;7.93;;;6.40;;
10461;SDS011;5278;42.656;23.374;2023-07-13T13:34:39;8.73;;;6.50;;
10461;SDS011;5278;42.656;23.374;2023-07-13T13:37:16;9.35;;;6.22;;
10461;SDS011;5278;42.656;23.374;2023-07-13T13:39:46;9.68;;;5.82;;
10461;SDS011;5278;42.656;23.374;2023-07-13T13:42:13;10.02;;;6.00;;
10461;SDS011;5278;42.656;23.374;2023-07-13T13:44:41;7.50;;;5.97;;
10461;SDS011;5278;42.656;23.374;2023-07-13T13:47:13;13.35;;;7.68;;
10461;SDS011;5278;42.656;23.374;2023-07-13T13:49:54;15.38;;;7.13;;
10461;SDS011;5278;42.656;23.374;2023-07-13T13:52:21;11.35;;;6.60;;
10461;SDS011;5278;42.656;23.374;2023-07-13T13:54:52;10.23;;;6.88;;
10461;SDS011;5278;42.656;23.374;2023-07-13T13:57:21;10.60;;;6.78;;
10461;SDS011;5278;42.656;23.374;2023-07-13T13:59:51;11.70;;;7.63;;
10461;SDS011;5278;42.656;23.374;2023-07-13T14:02:22;9.18;;;6.50;;
10461;SDS011;5278;42.656;23.374;2023-07-13T14:04:51;9.52;;;6.53;;
10461;SDS011;5278;42.656;23.374;2023-07-13T14:07:21;11.35;;;6.10;;
10461;SDS011;5278;42.656;23.374;2023-07-13T14:09:48;10.55;;;6.50;;
10461;SDS011;5278;42.656;23.374;2023-07-13T14:12:19;9.77;;;5.97;;
10461;SDS011;5278;42.656;23.374;2023-07-13T14:14:46;12.45;;;7.40;;
10461;SDS011;5278;42.656;23.374;2023-07-13T14:17:17;11.00;;;6.85;;
10461;SDS011;5278;42.656;23.374;2023-07-13T14:19:48;9.00;;;5.72;;
10461;SDS011;5278;42.656;23.374;2023-07-13T14:22:22;12.15;;;8.25;;
10461;SDS011;5278;42.656;23.374;2023-07-13T14:24:50;7.25;;;6.10;;
10461;SDS011;5278;42.656;23.374;2023-07-13T14:27:20;9.23;;;6.40;;
10461;SDS011;5278;42.656;23.374;2023-07-13T14:29:47;9.48;;;6.95;;
10461;SDS011;5278;42.656;23.374;2023-07-13T14:32:14;14.73;;;6.70;;
10461;SDS011;5278;42.656;23.374;2023-07-13T14:34:41;12.20;;;7.18;;
10461;SDS011;5278;42.656;23.374;2023-07-13T14:37:11;15.43;;;7.70;;
10461;SDS011;5278;42.656;23.374;2023-07-13T14:39:42;10.55;;;6.35;;
10461;SDS011;5278;42.656;23.374;2023-07-13T14:42:10;10.82;;;7.10;;
10461;SDS011;5278;42.656;23.374;2023-07-13T14:44:38;10.10;;;6.40;;
10461;SDS011;5278;42.656;23.374;2023-07-13T14:47:06;11.10;;;7.32;;
10461;SDS011;5278;42.656;23.374;2023-07-13T14:49:35;13.57;;;6.97;;
10461;SDS011;5278;42.656;23.374;2023-07-13T14:52:05;12.70;;;7.18;;
10461;SDS011;5278;42.656;23.374;2023-07-13T14:54:38;11.23;;;6.05;;
10461;SDS011;5278;42.656;23.374;2023-07-13T14:57:08;10.65;;;6.68;;
10461;SDS011;5278;42.656;23.374;2023-07-13T14:59:40;17.58;;;6.95;;
10461;SDS011;5278;42.656;23.374;2023-07-13T15:02:14;9.23;;;6.70;;